Pantokrator — SX3826 — position and weather

sailwx.info

Track history (hours):
 
Tides and Currents Weather Stations Pressure Air Temp Water Temp Dewpoint Dewpoint Depression Visibility Wind Speed Wind Dir Waves Ship Positions

Pantokrator

Last reported at 2017-Nov-20 00:30 UTC. Time now 2017-Nov-21 22:56 UTC.
Position N 37°58' E 023°37'.

Length 27 m; draft 2.4 m.

Type: Fishing. MMSI: 237516000.

Date/timePositionNaut miles runAvg speedWind from/ knotsBaromVisibWave heightAir tempDewpointWater temp
2017-Nov-20 00:30N 37°58' E 023°37'0 0.0
2017-Nov-20 00:00N 37°58' E 023°37'0 0.0
2017-Nov-19 23:30N 37°58' E 023°37'0 0.0
2017-Nov-19 23:00N 37°58' E 023°37'0 0.0
2017-Nov-19 22:30N 37°58' E 023°37'0 0.0
2017-Nov-19 21:59N 37°58' E 023°37'0 0.0
2017-Nov-19 21:30N 37°58' E 023°37'0 0.0
2017-Nov-19 21:00N 37°58' E 023°37'0 0.0
2017-Nov-19 20:29N 37°58' E 023°37'0 0.0
2017-Nov-19 20:00N 37°58' E 023°37'0 0.0
2017-Nov-19 19:30N 37°58' E 023°37'0 0.0
2017-Nov-19 19:00N 37°58' E 023°37'0 0.0
2017-Nov-19 18:30N 37°58' E 023°37'0 0.0
2017-Nov-19 18:00N 37°58' E 023°37'1 2.1
2017-Nov-19 17:30N 37°57' E 023°36'5 9.2
2017-Nov-19 17:00N 37°52' E 023°37'20 0.7
2017-Nov-18 10:32N 37°44' E 023°14'0 3.4
2017-Nov-18 10:27N 37°44' E 023°13'23 1.0
2017-Nov-17 11:08N 37°58' E 023°37'0 0.0
2017-Nov-17 11:00N 37°58' E 023°37'0 0.0
2017-Nov-17 10:30N 37°58' E 023°37'0 0.0
2017-Nov-17 10:00N 37°58' E 023°37'0 0.0
2017-Nov-17 09:29N 37°58' E 023°37'0 0.0
2017-Nov-17 09:00N 37°58' E 023°37'0 0.0
2017-Nov-17 08:29N 37°58' E 023°37'0 0.0
2017-Nov-17 08:00N 37°58' E 023°37'0 0.0
2017-Nov-17 07:30N 37°58' E 023°37'0 0.0
2017-Nov-17 07:00N 37°58' E 023°37'0 0.0
2017-Nov-17 06:30N 37°58' E 023°37'0 0.0
2017-Nov-17 06:00N 37°58' E 023°37'0 0.0
2017-Nov-17 05:30N 37°58' E 023°37'0 0.0
2017-Nov-17 04:59N 37°58' E 023°37'0 0.0
2017-Nov-17 04:30N 37°58' E 023°37'0 0.0
2017-Nov-17 03:58N 37°58' E 023°37'0 0.0
2017-Nov-17 03:30N 37°58' E 023°37'0 0.0
2017-Nov-17 03:00N 37°58' E 023°37'0 0.0
2017-Nov-17 02:28N 37°58' E 023°37'0 0.0
2017-Nov-17 02:00N 37°58' E 023°37'0 0.0
2017-Nov-17 01:30N 37°58' E 023°37'0 0.0
2017-Nov-17 01:00N 37°58' E 023°37'0 0.0
2017-Nov-17 00:30N 37°58' E 023°37'0 0.0
2017-Nov-17 00:00N 37°58' E 023°37'0 0.0
2017-Nov-16 23:30N 37°58' E 023°37'0 0.0
2017-Nov-16 23:00N 37°58' E 023°37'0 0.0
2017-Nov-16 22:30N 37°58' E 023°37'0 0.0
2017-Nov-16 21:59N 37°58' E 023°37'0 0.0
2017-Nov-16 21:30N 37°58' E 023°37'0 0.0
2017-Nov-16 20:57N 37°58' E 023°37'0 0.0
2017-Nov-16 20:28N 37°58' E 023°37'0 0.0
2017-Nov-16 20:00N 37°58' E 023°37'0 0.0
2017-Nov-16 19:30N 37°58' E 023°37'0 0.0
2017-Nov-16 18:59N 37°58' E 023°37'0 0.0
2017-Nov-16 18:30N 37°58' E 023°37'0 0.0
2017-Nov-16 17:52N 37°58' E 023°37'0 0.0
2017-Nov-16 17:30N 37°58' E 023°37'0 0.0
2017-Nov-16 17:00N 37°58' E 023°37'0 0.0
2017-Nov-16 16:30N 37°58' E 023°37'4 7.8
2017-Nov-16 16:00N 37°55' E 023°33'6 3.3
2017-Nov-16 14:12N 37°51' E 023°28'5 3.1
2017-Nov-16 12:44N 37°50' E 023°34'1 3.7
2017-Nov-16 12:30N 37°50' E 023°35'1 1.7
2017-Nov-16 12:01N 37°49' E 023°34'2 3.0
2017-Nov-16 11:29N 37°49' E 023°32'1 3.1
2017-Nov-16 11:00N 37°50' E 023°31'2 3.1
2017-Nov-16 10:26N 37°51' E 023°29'1 3.1
2017-Nov-16 09:58N 37°51' E 023°27'4 0.1
2017-Nov-15 03:17N 37°53' E 023°31'3 9.9
2017-Nov-15 03:01N 37°55' E 023°34'3 6.7
2017-Nov-15 02:31N 37°58' E 023°37'0 0.0
2017-Nov-15 02:00N 37°58' E 023°37'0 0.0
2017-Nov-15 01:30N 37°58' E 023°37'0 0.0
2017-Nov-15 01:00N 37°58' E 023°37'0 0.0
2017-Nov-15 00:30N 37°58' E 023°37'0 0.0
2017-Nov-15 00:00N 37°58' E 023°37'0 0.0
2017-Nov-14 23:31N 37°58' E 023°37'0 0.0
2017-Nov-14 23:00N 37°58' E 023°37'0 0.0
2017-Nov-14 22:27N 37°58' E 023°37'0 0.0
2017-Nov-14 22:00N 37°58' E 023°37'0 0.0
2017-Nov-14 21:30N 37°58' E 023°37'0 0.0
2017-Nov-14 21:00N 37°58' E 023°37'0 0.0
2017-Nov-14 20:30N 37°58' E 023°37'0 0.0
2017-Nov-14 20:00N 37°58' E 023°37'0 0.0
2017-Nov-14 19:30N 37°58' E 023°37'0 0.0
2017-Nov-14 19:00N 37°58' E 023°37'0 0.0
2017-Nov-14 18:29N 37°58' E 023°37'0 0.0
2017-Nov-14 18:00N 37°58' E 023°37'0 0.0
2017-Nov-14 17:30N 37°58' E 023°37'0 0.0
2017-Nov-14 17:00N 37°58' E 023°37'2 4.8
2017-Nov-14 16:30N 37°56' E 023°35'4 8.6
2017-Nov-14 16:01N 37°52' E 023°34'2 3.7
2017-Nov-14 15:28N 37°50' E 023°33'4 3.0
2017-Nov-14 14:05N 37°51' E 023°28'1 3.0
2017-Nov-14 13:51N 37°51' E 023°27'  
Track history (hours):
 
Tides and Currents Weather Stations Pressure Air Temp Water Temp Dewpoint Dewpoint Depression Visibility Wind Speed Wind Dir Waves Ship Positions

Pantokrator

Last reported at 2017-Nov-20 00:30 UTC. Time now 2017-Nov-21 22:56 UTC.
Position N 37°58' E 023°37'.

Length 27 m; draft 2.4 m.

Type: Fishing. MMSI: 237516000.

Date/timePositionNaut miles runAvg speedWind from/ knotsBaromVisibWave heightAir tempDewpointWater temp
2017-Nov-20 00:30N 37°58' E 023°37'0 0.0
2017-Nov-20 00:00N 37°58' E 023°37'0 0.0
2017-Nov-19 23:30N 37°58' E 023°37'0 0.0
2017-Nov-19 23:00N 37°58' E 023°37'0 0.0
2017-Nov-19 22:30N 37°58' E 023°37'0 0.0
2017-Nov-19 21:59N 37°58' E 023°37'0 0.0
2017-Nov-19 21:30N 37°58' E 023°37'0 0.0
2017-Nov-19 21:00N 37°58' E 023°37'0 0.0
2017-Nov-19 20:29N 37°58' E 023°37'0 0.0
2017-Nov-19 20:00N 37°58' E 023°37'0 0.0
2017-Nov-19 19:30N 37°58' E 023°37'0 0.0
2017-Nov-19 19:00N 37°58' E 023°37'0 0.0
2017-Nov-19 18:30N 37°58' E 023°37'0 0.0
2017-Nov-19 18:00N 37°58' E 023°37'1 2.1
2017-Nov-19 17:30N 37°57' E 023°36'5 9.2
2017-Nov-19 17:00N 37°52' E 023°37'20 0.7
2017-Nov-18 10:32N 37°44' E 023°14'0 3.4
2017-Nov-18 10:27N 37°44' E 023°13'23 1.0
2017-Nov-17 11:08N 37°58' E 023°37'0 0.0
2017-Nov-17 11:00N 37°58' E 023°37'0 0.0
2017-Nov-17 10:30N 37°58' E 023°37'0 0.0
2017-Nov-17 10:00N 37°58' E 023°37'0 0.0
2017-Nov-17 09:29N 37°58' E 023°37'0 0.0
2017-Nov-17 09:00N 37°58' E 023°37'0 0.0
2017-Nov-17 08:29N 37°58' E 023°37'0 0.0
2017-Nov-17 08:00N 37°58' E 023°37'0 0.0
2017-Nov-17 07:30N 37°58' E 023°37'0 0.0
2017-Nov-17 07:00N 37°58' E 023°37'0 0.0
2017-Nov-17 06:30N 37°58' E 023°37'0 0.0
2017-Nov-17 06:00N 37°58' E 023°37'0 0.0
2017-Nov-17 05:30N 37°58' E 023°37'0 0.0
2017-Nov-17 04:59N 37°58' E 023°37'0 0.0
2017-Nov-17 04:30N 37°58' E 023°37'0 0.0
2017-Nov-17 03:58N 37°58' E 023°37'0 0.0
2017-Nov-17 03:30N 37°58' E 023°37'0 0.0
2017-Nov-17 03:00N 37°58' E 023°37'0 0.0
2017-Nov-17 02:28N 37°58' E 023°37'0 0.0
2017-Nov-17 02:00N 37°58' E 023°37'0 0.0
2017-Nov-17 01:30N 37°58' E 023°37'0 0.0
2017-Nov-17 01:00N 37°58' E 023°37'0 0.0
2017-Nov-17 00:30N 37°58' E 023°37'0 0.0
2017-Nov-17 00:00N 37°58' E 023°37'0 0.0
2017-Nov-16 23:30N 37°58' E 023°37'0 0.0
2017-Nov-16 23:00N 37°58' E 023°37'0 0.0
2017-Nov-16 22:30N 37°58' E 023°37'0 0.0
2017-Nov-16 21:59N 37°58' E 023°37'0 0.0
2017-Nov-16 21:30N 37°58' E 023°37'0 0.0
2017-Nov-16 20:57N 37°58' E 023°37'0 0.0
2017-Nov-16 20:28N 37°58' E 023°37'0 0.0
2017-Nov-16 20:00N 37°58' E 023°37'0 0.0
2017-Nov-16 19:30N 37°58' E 023°37'0 0.0
2017-Nov-16 18:59N 37°58' E 023°37'0 0.0
2017-Nov-16 18:30N 37°58' E 023°37'0 0.0
2017-Nov-16 17:52N 37°58' E 023°37'0 0.0
2017-Nov-16 17:30N 37°58' E 023°37'0 0.0
2017-Nov-16 17:00N 37°58' E 023°37'0 0.0
2017-Nov-16 16:30N 37°58' E 023°37'4 7.8
2017-Nov-16 16:00N 37°55' E 023°33'6 3.3
2017-Nov-16 14:12N 37°51' E 023°28'5 3.1
2017-Nov-16 12:44N 37°50' E 023°34'1 3.7
2017-Nov-16 12:30N 37°50' E 023°35'1 1.7
2017-Nov-16 12:01N 37°49' E 023°34'2 3.0
2017-Nov-16 11:29N 37°49' E 023°32'1 3.1
2017-Nov-16 11:00N 37°50' E 023°31'2 3.1
2017-Nov-16 10:26N 37°51' E 023°29'1 3.1
2017-Nov-16 09:58N 37°51' E 023°27'4 0.1
2017-Nov-15 03:17N 37°53' E 023°31'3 9.9
2017-Nov-15 03:01N 37°55' E 023°34'3 6.7
2017-Nov-15 02:31N 37°58' E 023°37'0 0.0
2017-Nov-15 02:00N 37°58' E 023°37'0 0.0
2017-Nov-15 01:30N 37°58' E 023°37'0 0.0
2017-Nov-15 01:00N 37°58' E 023°37'0 0.0
2017-Nov-15 00:30N 37°58' E 023°37'0 0.0
2017-Nov-15 00:00N 37°58' E 023°37'0 0.0
2017-Nov-14 23:31N 37°58' E 023°37'0 0.0
2017-Nov-14 23:00N 37°58' E 023°37'0 0.0
2017-Nov-14 22:27N 37°58' E 023°37'0 0.0
2017-Nov-14 22:00N 37°58' E 023°37'0 0.0
2017-Nov-14 21:30N 37°58' E 023°37'0 0.0
2017-Nov-14 21:00N 37°58' E 023°37'0 0.0
2017-Nov-14 20:30N 37°58' E 023°37'0 0.0
2017-Nov-14 20:00N 37°58' E 023°37'0 0.0
2017-Nov-14 19:30N 37°58' E 023°37'0 0.0
2017-Nov-14 19:00N 37°58' E 023°37'0 0.0
2017-Nov-14 18:29N 37°58' E 023°37'0 0.0
2017-Nov-14 18:00N 37°58' E 023°37'0 0.0
2017-Nov-14 17:30N 37°58' E 023°37'0 0.0
2017-Nov-14 17:00N 37°58' E 023°37'2 4.8
2017-Nov-14 16:30N 37°56' E 023°35'4 8.6
2017-Nov-14 16:01N 37°52' E 023°34'2 3.7
2017-Nov-14 15:28N 37°50' E 023°33'4 3.0
2017-Nov-14 14:05N 37°51' E 023°28'1 3.0
2017-Nov-14 13:51N 37°51' E 023°27'  

Dump ship's entire track history